Time;durP1;ratioP1;P1;durP2;ratioP2;P2;SDS_P1;SDS_P2;PMS_P1;PMS_P2;Temp;Humidity;BMP_temperature;BMP_pressure;BME280_temperature;BME280_humidity;BME280_pressure;Samples;Min_cycle;Max_cycle;Signal;HPM_P1;HPM_P2
2022/05/04 00:00:14;;;;;;;10.18;2.90;;;7.90;99.20;;;;;;5023521;28;20499;-77
2022/05/04 00:02:41;;;;;;;11.75;3.08;;;7.90;99.40;;;;;;4990059;28;20041;-78
2022/05/04 00:05:08;;;;;;;12.07;2.83;;;7.90;99.40;;;;;;4974987;28;20051;-79
2022/05/04 00:07:34;;;;;;;10.90;3.00;;;7.90;99.40;;;;;;4992873;28;20057;-77
2022/05/04 00:09:59;;;;;;;11.05;2.67;;;7.90;99.50;;;;;;4992265;28;20049;-78
2022/05/04 00:12:26;;;;;;;9.07;2.72;;;7.90;99.90;;;;;;5037000;28;20060;-83
2022/05/04 00:14:52;;;;;;;9.65;2.80;;;7.80;99.90;;;;;;5025502;28;20054;-78
2022/05/04 00:17:18;;;;;;;11.27;2.97;;;7.80;99.90;;;;;;5009819;28;20079;-77
2022/05/04 00:19:44;;;;;;;12.43;3.10;;;7.90;99.80;;;;;;5019153;28;20112;-78
2022/05/04 00:22:10;;;;;;;11.07;2.92;;;7.80;99.90;;;;;;4962441;28;20092;-78
2022/05/04 00:24:35;;;;;;;9.75;3.05;;;7.80;99.70;;;;;;4973276;28;20050;-78
2022/05/04 00:27:01;;;;;;;8.55;3.45;;;7.80;99.80;;;;;;5006948;28;20041;-78
2022/05/04 00:29:27;;;;;;;9.00;2.92;;;7.80;99.80;;;;;;5013546;28;20052;-81
2022/05/04 00:31:52;;;;;;;12.88;2.95;;;7.80;99.90;;;;;;5028031;28;20432;-78
2022/05/04 00:34:18;;;;;;;8.70;2.95;;;7.80;99.90;;;;;;4975483;28;20129;-77
2022/05/04 00:36:44;;;;;;;11.90;2.80;;;7.90;99.90;;;;;;4995372;28;20057;-77
2022/05/04 00:39:09;;;;;;;11.18;2.95;;;7.80;99.90;;;;;;4992133;28;20054;-78
2022/05/04 00:41:35;;;;;;;9.27;2.42;;;7.80;99.90;;;;;;5016012;28;20060;-79
2022/05/04 00:44:01;;;;;;;11.77;3.25;;;7.80;99.90;;;;;;5009294;28;20133;-78
2022/05/04 00:46:26;;;;;;;8.73;2.55;;;7.90;99.90;;;;;;4994334;28;20041;-81
2022/05/04 00:48:52;;;;;;;8.48;2.38;;;7.80;99.90;;;;;;4979420;28;20460;-77
2022/05/04 00:51:19;;;;;;;11.60;2.97;;;7.80;99.90;;;;;;4987294;28;20073;-78
2022/05/04 00:53:45;;;;;;;11.95;2.65;;;7.80;99.90;;;;;;4991718;28;20046;-79
2022/05/04 00:56:11;;;;;;;14.98;3.08;;;7.80;99.90;;;;;;5010924;28;20504;-77
2022/05/04 00:58:57;;;;;;;7.55;2.78;;;7.80;99.90;;;;;;5010560;28;20054;-78
2022/05/04 01:01:28;;;;;;;18.70;4.20;;;7.70;99.90;;;;;;4976526;28;20050;-77
2022/05/04 01:03:55;;;;;;;10.68;2.95;;;7.70;99.90;;;;;;5008334;28;20050;-78
2022/05/04 01:06:21;;;;;;;7.47;3.03;;;7.70;99.90;;;;;;5010329;28;20048;-78
2022/05/04 01:08:51;;;;;;;14.20;2.72;;;7.70;99.90;;;;;;5031250;28;20116;-79
2022/05/04 01:11:18;;;;;;;14.90;3.92;;;7.70;99.90;;;;;;4994626;28;20405;-78
2022/05/04 01:13:57;;;;;;;8.10;2.72;;;7.70;99.90;;;;;;4975949;28;20050;-80
2022/05/04 01:16:23;;;;;;;12.95;2.95;;;7.70;99.90;;;;;;4970541;28;20097;-79
2022/05/04 01:18:49;;;;;;;10.35;3.00;;;7.70;99.90;;;;;;4993564;28;20046;-78
2022/05/04 01:21:15;;;;;;;14.05;2.95;;;7.70;99.90;;;;;;4981265;28;20056;-77
2022/05/04 01:23:42;;;;;;;12.27;3.28;;;7.70;99.90;;;;;;4983980;28;20046;-77
2022/05/04 01:26:08;;;;;;;11.27;2.50;;;7.70;99.90;;;;;;5026105;28;20044;-78
2022/05/04 01:28:34;;;;;;;10.00;3.20;;;7.70;99.90;;;;;;5009732;28;20049;-77
2022/05/04 01:30:59;;;;;;;11.48;2.70;;;7.80;99.90;;;;;;4977120;28;20046;-77
2022/05/04 01:33:25;;;;;;;12.23;2.78;;;7.70;99.90;;;;;;4987647;28;20107;-79
2022/05/04 01:35:50;;;;;;;13.15;3.15;;;7.60;99.90;;;;;;4960263;28;20041;-78
2022/05/04 01:38:16;;;;;;;11.80;3.80;;;7.60;99.90;;;;;;4981584;28;20525;-77
2022/05/04 01:40:42;;;;;;;8.85;2.53;;;7.60;99.90;;;;;;4983056;28;20107;-77
2022/05/04 01:43:08;;;;;;;12.40;2.95;;;7.60;99.90;;;;;;4983214;28;20049;-77
2022/05/04 01:45:33;;;;;;;7.72;2.65;;;7.60;99.90;;;;;;4989440;28;20050;-77
2022/05/04 01:47:59;;;;;;;8.70;2.47;;;7.60;99.90;;;;;;5008747;28;20052;-80
2022/05/04 01:50:24;;;;;;;10.52;2.78;;;7.60;99.90;;;;;;4993471;28;20069;-78
2022/05/04 01:52:50;;;;;;;7.60;2.60;;;7.50;99.90;;;;;;4978658;28;20040;-79
2022/05/04 01:55:17;;;;;;;9.45;2.58;;;7.60;99.90;;;;;;4976383;28;20504;-78
2022/05/04 01:57:42;;;;;;;5.65;2.35;;;7.50;99.90;;;;;;4976341;28;20057;-78
2022/05/04 02:00:09;;;;;;;13.25;2.80;;;7.50;99.90;;;;;;4975917;28;20198;-78
2022/05/04 02:02:35;;;;;;;8.13;2.58;;;7.60;99.90;;;;;;5024830;28;20046;-77
2022/05/04 02:05:03;;;;;;;11.05;2.20;;;7.60;99.90;;;;;;5033192;28;20065;-78
2022/05/04 02:07:28;;;;;;;14.82;2.58;;;7.60;99.90;;;;;;4992306;28;20095;-77
2022/05/04 02:09:55;;;;;;;8.13;2.42;;;7.60;99.90;;;;;;4975999;28;20046;-78
2022/05/04 02:12:21;;;;;;;9.75;2.28;;;7.60;99.90;;;;;;4973333;28;20038;-78
2022/05/04 02:14:46;;;;;;;10.52;2.63;;;7.60;99.90;;;;;;4997489;28;20633;-78
2022/05/04 02:17:12;;;;;;;9.13;2.30;;;7.60;99.90;;;;;;4993494;28;20519;-78
2022/05/04 02:19:37;;;;;;;9.95;2.88;;;7.60;99.90;;;;;;4976390;28;20073;-78
2022/05/04 02:22:03;;;;;;;15.43;2.83;;;7.60;99.90;;;;;;4992064;28;20054;-79
2022/05/04 02:24:29;;;;;;;12.90;2.58;;;7.60;99.90;;;;;;4973620;28;20123;-78
2022/05/04 02:26:55;;;;;;;12.02;3.50;;;7.50;99.90;;;;;;5001836;28;21019;-79
2022/05/04 02:29:21;;;;;;;10.43;2.58;;;7.60;99.90;;;;;;4955659;28;20054;-78
2022/05/04 02:31:47;;;;;;;8.40;2.65;;;7.60;99.90;;;;;;4989984;28;20107;-80
2022/05/04 02:34:12;;;;;;;9.43;3.35;;;7.60;99.90;;;;;;4990598;28;20054;-78
2022/05/04 02:39:39;;;;;;;14.43;2.38;;;7.50;99.90;;;;;;4951605;28;20046;-79
2022/05/04 02:42:05;;;;;;;11.68;3.00;;;7.50;99.90;;;;;;4966475;28;20084;-77
2022/05/04 02:44:30;;;;;;;8.57;2.58;;;7.50;99.90;;;;;;5012754;28;20096;-77
2022/05/04 02:46:56;;;;;;;10.43;2.67;;;7.50;99.90;;;;;;4974496;28;20050;-77
2022/05/04 02:49:22;;;;;;;10.43;2.70;;;7.50;99.90;;;;;;4991194;28;20046;-77
2022/05/04 02:51:47;;;;;;;6.68;2.55;;;7.50;99.90;;;;;;4975351;28;20081;-78
2022/05/04 02:54:13;;;;;;;9.95;2.55;;;7.50;99.90;;;;;;5029435;28;20069;-77
2022/05/04 02:56:39;;;;;;;12.40;2.70;;;7.50;99.90;;;;;;4973642;28;20060;-78
2022/05/04 02:59:05;;;;;;;11.27;2.60;;;7.40;99.90;;;;;;4987245;28;20085;-78
2022/05/04 03:04:14;;;;;;;15.48;2.90;;;7.40;99.90;;;;;;4999242;28;20409;-77
2022/05/04 03:06:41;;;;;;;6.65;2.58;;;7.40;99.90;;;;;;5024105;28;20052;-78
2022/05/04 03:09:08;;;;;;;9.68;2.83;;;7.50;99.90;;;;;;4962251;28;20042;-78
2022/05/04 03:14:20;;;;;;;13.50;2.55;;;7.40;99.90;;;;;;5010700;28;20054;-79
2022/05/04 03:16:46;;;;;;;13.38;2.53;;;7.40;99.90;;;;;;5002721;28;20058;-78
2022/05/04 03:19:12;;;;;;;8.80;2.10;;;7.40;99.90;;;;;;5023392;28;20077;-77
2022/05/04 03:21:38;;;;;;;9.23;2.40;;;7.50;99.90;;;;;;5008070;28;20493;-82
2022/05/04 03:24:04;;;;;;;11.05;2.67;;;7.40;99.90;;;;;;4981118;28;20045;-79
2022/05/04 03:26:29;;;;;;;7.90;2.42;;;7.40;99.90;;;;;;4996507;28;20069;-77
2022/05/04 03:28:55;;;;;;;10.77;2.45;;;7.50;99.90;;;;;;4971420;28;20983;-78
2022/05/04 03:31:21;;;;;;;6.60;2.28;;;7.50;99.90;;;;;;4966962;28;20050;-77
2022/05/04 03:33:47;;;;;;;9.63;2.03;;;7.50;99.90;;;;;;5010214;28;20480;-77
2022/05/04 03:36:13;;;;;;;6.78;1.98;;;7.50;99.90;;;;;;5029318;28;20116;-77
2022/05/04 03:38:39;;;;;;;9.10;2.50;;;7.50;99.90;;;;;;5026189;28;20042;-82
2022/05/04 03:41:05;;;;;;;9.30;2.08;;;7.50;99.90;;;;;;5001787;28;20869;-78
2022/05/04 03:43:30;;;;;;;10.77;3.15;;;7.40;99.90;;;;;;5023276;28;20053;-78
2022/05/04 03:46:20;;;;;;;8.45;2.70;;;7.40;99.90;;;;;;4973536;28;20038;-78
2022/05/04 03:48:51;;;;;;;7.88;2.13;;;7.40;99.90;;;;;;5022291;28;20137;-78
2022/05/04 03:51:19;;;;;;;10.70;2.60;;;7.40;99.90;;;;;;5007183;28;20444;-78
2022/05/04 03:53:45;;;;;;;11.00;2.33;;;7.40;99.90;;;;;;4974607;28;20112;-78
2022/05/04 03:56:11;;;;;;;7.13;2.40;;;7.40;99.90;;;;;;4997060;28;20052;-78
2022/05/04 03:58:37;;;;;;;6.10;2.10;;;7.40;99.90;;;;;;4973124;28;20569;-79
2022/05/04 04:01:04;;;;;;;8.52;2.20;;;7.40;99.90;;;;;;4958179;28;20038;-78
2022/05/04 04:03:29;;;;;;;10.10;2.83;;;7.40;99.90;;;;;;5022651;28;20038;-78
2022/05/04 04:05:55;;;;;;;8.98;2.53;;;7.30;99.90;;;;;;4987794;28;20057;-78
2022/05/04 04:08:21;;;;;;;9.43;2.10;;;7.40;99.90;;;;;;5005320;28;20096;-78
2022/05/04 04:10:47;;;;;;;8.45;2.13;;;7.40;99.90;;;;;;5006862;28;20133;-78
2022/05/04 04:13:13;;;;;;;10.60;2.50;;;7.40;99.90;;;;;;4989978;28;20084;-78
2022/05/04 04:15:39;;;;;;;9.25;2.10;;;7.40;99.90;;;;;;4974365;28;20453;-81
2022/05/04 04:18:05;;;;;;;11.32;2.63;;;7.40;99.90;;;;;;4987326;28;20135;-79
2022/05/04 04:23:14;;;;;;;13.32;2.42;;;7.40;99.90;;;;;;4992818;28;20058;-77
2022/05/04 04:25:40;;;;;;;8.05;2.30;;;7.40;99.90;;;;;;4974952;28;20046;-82
2022/05/04 04:28:06;;;;;;;6.97;2.08;;;7.40;99.90;;;;;;4990015;28;20049;-77
2022/05/04 04:30:32;;;;;;;10.13;2.22;;;7.40;99.90;;;;;;5020451;28;20104;-77
2022/05/04 04:32:58;;;;;;;10.07;2.63;;;7.40;99.90;;;;;;5025195;28;20042;-78
2022/05/04 04:35:23;;;;;;;9.23;2.40;;;7.50;99.90;;;;;;4990494;28;20078;-77
2022/05/04 04:37:49;;;;;;;8.63;2.25;;;7.60;99.90;;;;;;4974829;28;20615;-79
2022/05/04 04:40:15;;;;;;;11.15;2.85;;;7.60;99.90;;;;;;4973255;28;20129;-78
2022/05/04 04:42:41;;;;;;;8.20;2.35;;;7.60;99.90;;;;;;4973507;28;20088;-78
2022/05/04 04:45:07;;;;;;;8.18;2.83;;;7.60;99.90;;;;;;4957701;28;20081;-78
2022/05/04 04:47:33;;;;;;;8.18;2.75;;;7.70;99.90;;;;;;4978456;28;20049;-79
2022/05/04 04:49:59;;;;;;;9.27;2.70;;;7.80;99.90;;;;;;4988305;28;20103;-79
2022/05/04 04:52:24;;;;;;;8.18;2.53;;;7.70;99.90;;;;;;4973593;28;20054;-80
2022/05/04 04:54:50;;;;;;;12.02;2.88;;;7.80;99.90;;;;;;5021709;28;20056;-76
2022/05/04 04:57:16;;;;;;;11.32;3.33;;;7.80;99.90;;;;;;5010445;28;20044;-77
2022/05/04 04:59:43;;;;;;;12.65;2.28;;;7.80;99.90;;;;;;4971796;28;20050;-77
2022/05/04 05:02:09;;;;;;;5.75;1.85;;;7.80;99.90;;;;;;4973836;28;20068;-77
2022/05/04 05:04:35;;;;;;;8.05;2.70;;;7.90;99.90;;;;;;4972238;28;20445;-77
2022/05/04 05:07:01;;;;;;;7.00;2.30;;;7.90;99.90;;;;;;4973017;28;20558;-77
2022/05/04 05:09:26;;;;;;;7.13;2.00;;;8.00;99.90;;;;;;5021292;28;20038;-77
2022/05/04 05:11:52;;;;;;;9.50;2.17;;;8.10;99.90;;;;;;4970721;28;20128;-77
2022/05/04 05:17:02;;;;;;;8.00;2.40;;;8.20;99.90;;;;;;4999113;28;20058;-77
2022/05/04 05:19:28;;;;;;;7.32;2.30;;;8.20;99.90;;;;;;4953733;28;20054;-78
2022/05/04 05:21:53;;;;;;;6.65;2.42;;;8.20;99.90;;;;;;5008309;28;20042;-78
2022/05/04 05:24:19;;;;;;;7.80;2.30;;;8.20;99.90;;;;;;4975485;28;20393;-80
2022/05/04 05:26:45;;;;;;;10.18;2.45;;;8.20;99.70;;;;;;4976310;28;20409;-79
2022/05/04 05:29:10;;;;;;;6.60;2.72;;;8.30;99.20;;;;;;4977646;28;20108;-77
2022/05/04 05:31:37;;;;;;;5.63;2.30;;;8.30;98.90;;;;;;5010692;28;20049;-76
2022/05/04 05:34:02;;;;;;;10.20;3.17;;;8.30;98.60;;;;;;5008824;28;20103;-77
2022/05/04 05:36:28;;;;;;;14.57;2.50;;;8.40;97.90;;;;;;4976283;28;20057;-78
2022/05/04 05:38:54;;;;;;;6.18;2.25;;;8.40;98.00;;;;;;5024536;28;20049;-79
2022/05/04 05:41:20;;;;;;;14.30;2.50;;;8.50;97.40;;;;;;5010148;28;20042;-79
2022/05/04 05:43:46;;;;;;;8.55;2.20;;;8.50;97.10;;;;;;5008968;28;20049;-84
2022/05/04 05:46:11;;;;;;;11.13;3.13;;;8.60;96.80;;;;;;5013538;28;20056;-78
2022/05/04 05:48:37;;;;;;;7.88;2.50;;;8.70;96.30;;;;;;5014143;28;20037;-79
2022/05/04 05:51:05;;;;;;;7.68;2.30;;;8.80;96.40;;;;;;4963811;28;20042;-78
2022/05/04 05:53:31;;;;;;;8.25;2.35;;;8.90;95.70;;;;;;4974914;28;20056;-78
2022/05/04 05:55:57;;;;;;;4.60;1.80;;;9.00;94.70;;;;;;5024888;28;20104;-78
2022/05/04 05:58:23;;;;;;;11.02;2.65;;;9.10;94.20;;;;;;4992559;28;20120;-79
2022/05/04 06:00:49;;;;;;;13.95;2.78;;;9.20;94.10;;;;;;4973794;28;20749;-79
2022/05/04 06:03:17;;;;;;;8.75;2.60;;;9.30;92.80;;;;;;4994260;28;20054;-78
2022/05/04 06:05:43;;;;;;;11.88;2.55;;;9.40;91.80;;;;;;4989501;28;20119;-77
2022/05/04 06:08:10;;;;;;;12.57;2.35;;;9.50;90.70;;;;;;5011521;28;20046;-77
2022/05/04 06:10:37;;;;;;;8.98;2.05;;;9.50;89.40;;;;;;4997852;28;20059;-79
2022/05/04 06:13:03;;;;;;;9.27;2.65;;;9.60;88.30;;;;;;5012804;28;20496;-78
2022/05/04 06:15:29;;;;;;;7.00;1.80;;;9.60;87.80;;;;;;5013978;28;20110;-77
2022/05/04 06:17:55;;;;;;;11.45;2.67;;;9.70;86.90;;;;;;4986012;28;20153;-79
2022/05/04 06:20:26;;;;;;;8.60;2.33;;;9.70;85.30;;;;;;4974266;28;20046;-78
2022/05/04 06:22:52;;;;;;;9.65;2.92;;;9.60;84.80;;;;;;5016110;28;20053;-78
2022/05/04 06:25:18;;;;;;;10.77;2.53;;;9.70;84.90;;;;;;4989996;28;20050;-76
2022/05/04 06:27:44;;;;;;;10.98;2.22;;;9.70;84.10;;;;;;4978465;28;20076;-76
2022/05/04 06:35:39;;;;;;;7.50;2.00;;;9.80;81.00;;;;;;4996509;28;20805;-81
2022/05/04 06:38:05;;;;;;;9.93;1.98;;;9.90;80.50;;;;;;5008895;28;20046;-80
2022/05/04 06:40:31;;;;;;;3.60;1.77;;;10.00;79.70;;;;;;4993170;28;20493;-77
2022/05/04 06:42:57;;;;;;;11.13;2.00;;;10.10;78.50;;;;;;4989946;28;20046;-77
2022/05/04 06:45:22;;;;;;;9.02;1.92;;;10.20;78.80;;;;;;5009221;28;20524;-77
2022/05/04 06:47:48;;;;;;;8.98;2.30;;;10.10;76.20;;;;;;5001728;28;20045;-77
2022/05/04 06:50:15;;;;;;;12.73;2.65;;;10.10;75.90;;;;;;5025823;28;20054;-77
2022/05/04 06:52:41;;;;;;;13.93;2.28;;;10.20;76.00;;;;;;4992911;28;20046;-78
2022/05/04 06:55:07;;;;;;;15.30;2.97;;;10.20;75.10;;;;;;5000856;28;20088;-77
2022/05/04 06:57:34;;;;;;;11.90;2.53;;;10.30;75.10;;;;;;4976643;28;20050;-76
2022/05/04 07:00:04;;;;;;;14.05;2.40;;;10.30;74.60;;;;;;4989556;28;20119;-78
2022/05/04 07:02:31;;;;;;;8.85;2.05;;;10.40;74.30;;;;;;5001298;28;20063;-77
2022/05/04 07:04:57;;;;;;;8.70;2.00;;;10.50;74.60;;;;;;4968012;28;20042;-77
2022/05/04 07:07:22;;;;;;;9.88;2.53;;;10.60;73.80;;;;;;4976738;28;20049;-77
2022/05/04 07:09:48;;;;;;;11.23;2.60;;;10.70;72.10;;;;;;5009715;28;20132;-77
2022/05/04 07:12:14;;;;;;;6.65;2.00;;;10.70;72.90;;;;;;5008752;28;20480;-77
2022/05/04 07:14:40;;;;;;;9.13;1.92;;;10.80;73.00;;;;;;4977134;28;20057;-81
2022/05/04 07:17:05;;;;;;;9.68;2.20;;;11.00;72.00;;;;;;5008222;28;20087;-80
2022/05/04 07:19:31;;;;;;;9.50;2.08;;;11.10;70.40;;;;;;5009567;28;20557;-77
2022/05/04 07:21:57;;;;;;;11.65;2.90;;;11.20;70.40;;;;;;5018536;28;20084;-77
2022/05/04 07:24:22;;;;;;;7.20;2.17;;;11.30;69.70;;;;;;5012583;28;20046;-77
2022/05/04 07:26:48;;;;;;;11.30;2.42;;;11.40;69.50;;;;;;5045552;28;20344;-77
2022/05/04 07:29:14;;;;;;;12.27;2.65;;;11.40;67.80;;;;;;5006103;28;20540;-77
2022/05/04 07:31:39;;;;;;;13.07;2.00;;;11.40;68.30;;;;;;4992374;28;20049;-80
2022/05/04 07:34:05;;;;;;;8.25;2.22;;;11.60;68.30;;;;;;5030559;28;20057;-80
2022/05/04 07:36:32;;;;;;;9.70;2.22;;;11.70;67.50;;;;;;5036560;28;20045;-77
2022/05/04 07:38:57;;;;;;;11.38;1.92;;;11.90;66.10;;;;;;5008540;28;20057;-77
2022/05/04 07:44:07;;;;;;;9.60;2.33;;;12.00;63.90;;;;;;5008032;28;20045;-78
2022/05/04 07:46:33;;;;;;;11.60;2.25;;;12.00;63.60;;;;;;5029773;28;20053;-77
2022/05/04 07:49:00;;;;;;;7.18;2.30;;;12.00;63.50;;;;;;4992264;28;20080;-78
2022/05/04 07:51:25;;;;;;;8.82;2.30;;;12.00;62.20;;;;;;4990339;28;20046;-80
2022/05/04 07:53:51;;;;;;;10.77;2.28;;;12.00;62.60;;;;;;4991980;28;20034;-77
2022/05/04 07:56:17;;;;;;;7.43;3.00;;;11.90;62.20;;;;;;5023532;28;20046;-78
2022/05/04 07:58:43;;;;;;;8.38;2.70;;;11.90;62.30;;;;;;5008105;28;20112;-77
2022/05/04 08:06:36;;;;;;;9.23;2.30;;;11.90;62.50;;;;;;5006885;28;20037;-78
2022/05/04 08:09:03;;;;;;;10.73;2.80;;;12.00;62.10;;;;;;4992355;28;20506;-77
2022/05/04 08:11:29;;;;;;;8.60;2.25;;;12.30;62.60;;;;;;4991095;28;20144;-77
2022/05/04 08:13:55;;;;;;;7.07;2.10;;;12.60;61.90;;;;;;4991775;28;20468;-82
2022/05/04 08:16:21;;;;;;;10.27;2.75;;;12.90;61.00;;;;;;4991432;28;20052;-78
2022/05/04 08:18:47;;;;;;;7.20;2.60;;;13.20;60.00;;;;;;4991666;28;20108;-78
2022/05/04 08:21:12;;;;;;;13.73;3.50;;;13.50;59.30;;;;;;4987326;28;20096;-77
2022/05/04 08:23:39;;;;;;;9.50;2.38;;;13.70;57.80;;;;;;4992094;28;20103;-78
2022/05/04 08:26:05;;;;;;;5.47;2.22;;;13.60;57.20;;;;;;4985387;28;20523;-78
2022/05/04 08:28:31;;;;;;;6.43;2.25;;;13.30;56.80;;;;;;5007295;28;20053;-78
2022/05/04 08:30:57;;;;;;;8.52;3.22;;;13.00;57.50;;;;;;4956634;28;20489;-83
2022/05/04 08:33:23;;;;;;;6.90;2.10;;;12.80;58.30;;;;;;4991122;28;20056;-77
2022/05/04 08:35:49;;;;;;;10.25;3.10;;;12.60;58.30;;;;;;5007927;28;20038;-79
2022/05/04 08:38:15;;;;;;;10.40;2.20;;;12.30;58.80;;;;;;4988075;28;20128;-77
2022/05/04 08:40:40;;;;;;;7.45;2.65;;;12.00;59.70;;;;;;5028509;28;20584;-81
2022/05/04 08:43:07;;;;;;;8.00;2.45;;;12.00;60.10;;;;;;5007451;28;20133;-81
2022/05/04 08:45:39;;;;;;;8.98;2.17;;;12.60;59.00;;;;;;5008152;28;20050;-77
2022/05/04 08:48:08;;;;;;;6.65;2.00;;;13.50;56.80;;;;;;5007598;28;20080;-79
2022/05/04 08:50:34;;;;;;;9.82;2.13;;;14.20;54.80;;;;;;5007450;28;20050;-77
2022/05/04 08:53:02;;;;;;;9.82;2.45;;;14.80;53.60;;;;;;4987244;28;20762;-82
2022/05/04 08:55:28;;;;;;;7.28;2.50;;;15.60;53.00;;;;;;5007838;28;20042;-78
2022/05/04 08:57:54;;;;;;;8.02;2.30;;;16.20;52.10;;;;;;5007933;28;20086;-78
2022/05/04 09:00:21;;;;;;;6.80;2.00;;;17.00;50.10;;;;;;5021845;28;20077;-79
2022/05/04 09:02:47;;;;;;;7.47;2.88;;;17.60;48.90;;;;;;5026686;28;20065;-79
2022/05/04 09:05:14;;;;;;;9.38;2.15;;;18.10;46.70;;;;;;4977595;28;20077;-77
2022/05/04 09:07:39;;;;;;;6.32;2.20;;;18.50;45.60;;;;;;5013314;28;20053;-77
2022/05/04 09:10:06;;;;;;;6.50;1.98;;;18.90;45.00;;;;;;4979027;28;20091;-80
2022/05/04 09:12:32;;;;;;;8.13;2.17;;;19.20;43.50;;;;;;5011366;28;20409;-78
2022/05/04 09:14:59;;;;;;;5.95;2.28;;;19.70;42.80;;;;;;5011681;28;20409;-77
2022/05/04 09:17:25;;;;;;;9.00;2.20;;;20.10;41.30;;;;;;4978231;28;20065;-79
2022/05/04 09:22:40;;;;;;;4.55;1.73;;;20.90;38.30;;;;;;5009181;28;20056;-78
2022/05/04 09:25:18;;;;;;;9.20;2.20;;;20.40;38.30;;;;;;4960924;28;20054;-79
2022/05/04 09:27:47;;;;;;;8.30;2.20;;;20.40;39.10;;;;;;4974629;28;20482;-78
2022/05/04 09:30:14;;;;;;;6.07;2.10;;;21.00;37.90;;;;;;4987812;28;20046;-77
2022/05/04 09:32:40;;;;;;;6.95;2.33;;;21.10;36.80;;;;;;4978521;28;20042;-78
2022/05/04 09:35:13;;;;;;;7.50;2.05;;;21.10;36.10;;;;;;5013617;28;20643;-80
2022/05/04 09:45:55;;;;;;;5.75;2.47;;;21.00;36.40;;;;;;5012301;28;20119;-78
2022/05/04 09:48:35;;;;;;;6.45;2.10;;;21.20;36.50;;;;;;5034416;28;20742;-81
2022/05/04 09:51:05;;;;;;;6.75;1.90;;;21.50;34.30;;;;;;4989595;28;20124;-80
2022/05/04 09:53:31;;;;;;;5.80;2.22;;;21.70;35.30;;;;;;4999572;28;20397;-77
2022/05/04 09:55:57;;;;;;;7.45;2.13;;;22.10;35.00;;;;;;5010263;28;20048;-77
2022/05/04 09:58:25;;;;;;;7.35;2.20;;;22.40;33.70;;;;;;4978416;28;20532;-77
2022/05/04 10:00:52;;;;;;;6.55;2.20;;;22.60;33.00;;;;;;4993732;28;20115;-77
2022/05/04 10:03:21;;;;;;;7.75;2.78;;;22.60;32.10;;;;;;4974517;28;20125;-77
2022/05/04 10:05:48;;;;;;;8.48;2.08;;;22.40;31.20;;;;;;4981323;28;20121;-78
2022/05/04 10:08:14;;;;;;;7.05;1.95;;;21.30;32.30;;;;;;4977922;28;20057;-78
2022/05/04 10:10:41;;;;;;;6.35;2.08;;;20.50;34.00;;;;;;4974320;28;20054;-80
2022/05/04 10:13:10;;;;;;;7.65;2.05;;;20.00;34.40;;;;;;4980778;28;20077;-80
2022/05/04 10:15:40;;;;;;;4.78;1.73;;;20.40;35.10;;;;;;4998369;28;20072;-79
2022/05/04 10:18:16;;;;;;;7.47;2.15;;;21.50;34.90;;;;;;4996967;28;20205;-82
2022/05/04 10:20:45;;;;;;;9.00;1.77;;;22.70;33.60;;;;;;4985980;28;20052;-77
2022/05/04 10:23:17;;;;;;;4.97;1.90;;;24.00;32.60;;;;;;4973839;28;20038;-79
2022/05/04 10:25:43;;;;;;;6.25;1.98;;;24.80;30.70;;;;;;5007328;28;20081;-78
2022/05/04 10:28:12;;;;;;;4.43;1.75;;;25.20;30.00;;;;;;4977603;28;20433;-77
2022/05/04 10:30:55;;;;;;;6.32;1.90;;;25.40;29.40;;;;;;5018372;28;20049;-80
2022/05/04 10:33:25;;;;;;;7.10;2.75;;;25.70;28.80;;;;;;5030629;28;20057;-81
2022/05/04 10:35:52;;;;;;;8.43;2.55;;;25.70;27.40;;;;;;4994238;28;20056;-79
2022/05/04 10:38:35;;;;;;;9.82;2.15;;;24.80;28.10;;;;;;4988793;28;20132;-79
2022/05/04 10:41:06;;;;;;;6.18;1.70;;;24.30;27.90;;;;;;4990901;28;20077;-78
2022/05/04 10:43:36;;;;;;;4.57;1.88;;;23.20;29.10;;;;;;4988188;28;20061;-78
2022/05/04 10:46:22;;;;;;;7.68;2.17;;;22.30;31.00;;;;;;5008562;28;20523;-78
2022/05/04 10:49:05;;;;;;;7.00;2.15;;;22.70;30.70;;;;;;5008468;28;20382;-78
2022/05/04 10:51:36;;;;;;;6.60;2.20;;;23.50;30.10;;;;;;4991354;28;20042;-79
2022/05/04 10:54:13;;;;;;;6.78;2.00;;;24.00;29.30;;;;;;5006590;28;20049;-79
2022/05/04 10:56:50;;;;;;;9.13;2.10;;;24.70;28.70;;;;;;5018869;28;20509;-78
2022/05/04 10:59:42;;;;;;;5.97;1.85;;;25.30;27.70;;;;;;4992111;28;20176;-78
2022/05/04 11:02:12;;;;;;;9.82;1.98;;;25.70;27.20;;;;;;4990253;28;20536;-82
2022/05/04 11:04:40;;;;;;;5.03;1.90;;;26.20;27.20;;;;;;5009837;28;20050;-78
2022/05/04 11:07:07;;;;;;;5.07;2.00;;;26.40;26.20;;;;;;5009749;28;20060;-78
2022/05/04 11:09:46;;;;;;;6.63;1.90;;;26.60;26.40;;;;;;5021416;28;20120;-78
2022/05/04 11:12:13;;;;;;;6.85;2.35;;;26.60;26.30;;;;;;5012658;28;20045;-78
2022/05/04 11:14:40;;;;;;;6.30;1.55;;;26.60;25.40;;;;;;4996713;28;20600;-78
2022/05/04 11:17:11;;;;;;;5.30;1.90;;;26.80;25.20;;;;;;5012680;28;20076;-79
2022/05/04 11:19:45;;;;;;;6.20;2.20;;;27.00;25.20;;;;;;5012938;28;20079;-78
2022/05/04 11:22:12;;;;;;;7.65;2.17;;;27.20;25.60;;;;;;5045034;28;20144;-81
2022/05/04 11:24:37;;;;;;;8.18;2.00;;;27.50;25.60;;;;;;5012388;28;20393;-78
2022/05/04 11:27:04;;;;;;;7.75;2.30;;;27.90;24.80;;;;;;5012722;28;20053;-79
2022/05/04 11:29:30;;;;;;;4.50;1.70;;;27.50;24.70;;;;;;5011657;28;20735;-79
2022/05/04 11:32:03;;;;;;;3.95;1.63;;;27.10;25.00;;;;;;5045781;28;20061;-78
2022/05/04 11:34:36;;;;;;;8.10;2.05;;;26.80;25.10;;;;;;5045167;28;20056;-79
2022/05/04 11:37:11;;;;;;;6.63;1.80;;;26.80;24.90;;;;;;5012336;28;20052;-78
2022/05/04 11:39:39;;;;;;;5.40;1.80;;;26.50;24.50;;;;;;5029115;28;20399;-79
2022/05/04 11:42:07;;;;;;;7.95;2.10;;;26.40;25.00;;;;;;5012274;28;20148;-78
2022/05/04 11:44:34;;;;;;;6.85;2.20;;;26.40;25.00;;;;;;5012120;28;20120;-78
2022/05/04 11:47:02;;;;;;;5.43;1.73;;;26.20;25.10;;;;;;5012524;28;20049;-78
2022/05/04 11:49:30;;;;;;;7.18;1.80;;;26.30;25.00;;;;;;5011771;28;20056;-81
2022/05/04 11:51:57;;;;;;;5.97;2.55;;;26.80;25.20;;;;;;5045325;28;20045;-79
2022/05/04 11:54:23;;;;;;;6.82;1.98;;;27.40;24.80;;;;;;5011721;28;20041;-78
2022/05/04 11:56:49;;;;;;;8.00;2.40;;;27.70;24.20;;;;;;4985404;28;20124;-78
2022/05/04 11:59:15;;;;;;;8.35;2.20;;;28.00;23.80;;;;;;4995438;28;20239;-79
2022/05/04 12:01:41;;;;;;;10.25;1.90;;;27.90;23.20;;;;;;5011989;28;20551;-81
2022/05/04 12:04:09;;;;;;;8.00;2.08;;;27.60;23.60;;;;;;4995592;28;20479;-79
2022/05/04 12:06:35;;;;;;;8.32;1.90;;;27.70;23.80;;;;;;5001291;28;20053;-78
2022/05/04 12:09:02;;;;;;;4.60;1.70;;;27.60;24.20;;;;;;5008709;28;20050;-80
2022/05/04 12:11:28;;;;;;;8.10;2.28;;;28.00;24.40;;;;;;4999042;28;20057;-80
2022/05/04 12:13:56;;;;;;;5.78;1.92;;;28.60;23.90;;;;;;5010479;28;20049;-78
2022/05/04 12:16:22;;;;;;;7.70;2.03;;;28.90;23.00;;;;;;5011181;28;20072;-78
2022/05/04 12:18:49;;;;;;;7.15;2.42;;;29.20;22.70;;;;;;5011736;28;20053;-80
2022/05/04 12:21:17;;;;;;;7.50;2.00;;;29.20;22.30;;;;;;5011180;28;20152;-78
2022/05/04 12:23:45;;;;;;;8.40;2.60;;;28.90;22.20;;;;;;5028515;28;20045;-78
2022/05/04 12:26:12;;;;;;;8.73;2.47;;;28.70;22.30;;;;;;5026132;28;20053;-79
2022/05/04 12:28:40;;;;;;;6.85;2.35;;;28.80;22.70;;;;;;5005350;28;20049;-78
2022/05/04 12:33:51;;;;;;;9.18;1.83;;;29.00;22.30;;;;;;5012235;28;20058;-79
2022/05/04 12:36:18;;;;;;;5.45;1.77;;;28.00;22.70;;;;;;4972953;28;20131;-78
2022/05/04 12:38:50;;;;;;;8.13;2.20;;;27.80;23.30;;;;;;5008204;28;20107;-79
2022/05/04 12:41:18;;;;;;;7.00;2.00;;;27.90;23.30;;;;;;5007086;28;20814;-80
2022/05/04 12:43:45;;;;;;;7.07;2.63;;;27.80;23.30;;;;;;5024681;28;20133;-78
2022/05/04 12:46:13;;;;;;;9.70;2.60;;;27.60;23.40;;;;;;5007623;28;20050;-80
2022/05/04 12:48:47;;;;;;;5.45;1.95;;;27.40;23.50;;;;;;4974715;28;20103;-78
2022/05/04 12:51:14;;;;;;;8.05;2.15;;;27.50;22.90;;;;;;5011126;28;20049;-78
2022/05/04 12:53:40;;;;;;;8.05;2.30;;;27.30;23.30;;;;;;4991621;28;20049;-78
2022/05/04 12:58:53;;;;;;;5.45;1.80;;;27.50;23.00;;;;;;4987844;28;20046;-78
2022/05/04 13:01:27;;;;;;;5.03;1.90;;;27.70;23.10;;;;;;4971496;28;20054;-78
2022/05/04 13:03:52;;;;;;;8.73;2.72;;;27.80;22.40;;;;;;4956351;28;20156;-78
2022/05/04 13:06:21;;;;;;;5.35;2.00;;;27.50;23.00;;;;;;5023516;28;20539;-78
2022/05/04 13:08:48;;;;;;;7.18;2.40;;;27.70;22.80;;;;;;5038737;28;20042;-79
2022/05/04 13:11:18;;;;;;;6.03;2.17;;;28.10;22.70;;;;;;5001958;28;20091;-78
2022/05/04 13:13:44;;;;;;;8.63;2.50;;;28.70;22.30;;;;;;4975710;28;20042;-76
2022/05/04 13:16:10;;;;;;;7.15;2.20;;;28.80;21.90;;;;;;5007204;28;20049;-78
2022/05/04 13:18:38;;;;;;;6.47;1.90;;;28.20;22.10;;;;;;4989504;28;20544;-80
2022/05/04 13:21:05;;;;;;;5.35;1.98;;;27.00;22.70;;;;;;4974667;28;20085;-78
2022/05/04 13:23:31;;;;;;;7.47;2.33;;;26.20;23.70;;;;;;4973522;28;20038;-79
2022/05/04 13:25:56;;;;;;;4.95;1.80;;;26.40;24.00;;;;;;5003544;28;20042;-79
2022/05/04 13:28:23;;;;;;;7.25;2.38;;;26.80;23.70;;;;;;4972339;28;20484;-79
2022/05/04 13:30:49;;;;;;;9.18;2.35;;;27.40;23.90;;;;;;4960782;28;20369;-80